Time;durP1;ratioP1;P1;durP2;ratioP2;P2;SDS_P1;SDS_P2;PMS_P1;PMS_P2;Temp;Humidity;BMP_temperature;BMP_pressure;BME280_temperature;BME280_humidity;BME280_pressure;Samples;Min_cycle;Max_cycle;Signal;HPM_P1;HPM_P2
2022/12/01 00:00:35;;;;;;;12.85;6.35;;;8.40;99.90;;;;;;5030458;28;20401;-88
2022/12/01 00:03:01;;;;;;;11.00;5.30;;;8.40;99.90;;;;;;5031190;28;20266;-88
2022/12/01 00:05:26;;;;;;;12.05;5.75;;;8.40;99.90;;;;;;4998314;28;20163;-89
2022/12/01 00:07:52;;;;;;;15.87;7.10;;;8.50;99.90;;;;;;5009862;28;20230;-88
2022/12/01 00:10:27;;;;;;;13.27;5.88;;;8.40;99.90;;;;;;5026678;28;20033;-88
2022/12/01 00:12:58;;;;;;;11.53;5.93;;;8.40;99.90;;;;;;5042618;28;20344;-89
2022/12/01 00:15:29;;;;;;;11.63;6.28;;;8.40;99.90;;;;;;5002748;28;20329;-88
2022/12/01 00:17:57;;;;;;;14.30;6.25;;;8.40;99.90;;;;;;5038507;28;20154;-88
2022/12/01 00:20:23;;;;;;;13.13;6.32;;;8.40;99.90;;;;;;5006545;28;20723;-88
2022/12/01 00:22:49;;;;;;;12.27;6.07;;;8.40;99.90;;;;;;5027883;28;20021;-88
2022/12/01 00:25:16;;;;;;;14.55;6.70;;;8.40;99.90;;;;;;5012484;28;20045;-88
2022/12/01 00:27:46;;;;;;;12.18;6.05;;;8.40;99.90;;;;;;5046428;28;20017;-88
2022/12/01 00:30:12;;;;;;;12.27;6.10;;;8.50;99.90;;;;;;4994206;28;20024;-89
2022/12/01 00:32:37;;;;;;;13.70;6.40;;;8.50;99.90;;;;;;5025968;28;20029;-88
2022/12/01 00:35:05;;;;;;;13.30;5.95;;;8.50;99.90;;;;;;5035740;28;20345;-88
2022/12/01 00:37:32;;;;;;;14.63;7.30;;;8.50;99.90;;;;;;5014644;28;20486;-88
2022/12/01 00:39:58;;;;;;;12.97;6.30;;;8.50;99.90;;;;;;5053853;28;20281;-88
2022/12/01 00:42:25;;;;;;;12.10;6.20;;;8.50;99.90;;;;;;5007687;28;20149;-88
2022/12/01 00:44:51;;;;;;;13.60;6.53;;;8.50;99.90;;;;;;5007145;28;20122;-89
2022/12/01 00:47:17;;;;;;;13.45;6.72;;;8.40;99.90;;;;;;5043363;28;20029;-88
2022/12/01 00:49:46;;;;;;;13.33;6.53;;;8.50;99.90;;;;;;5027592;28;20029;-88
2022/12/01 00:52:12;;;;;;;12.27;6.27;;;8.50;99.90;;;;;;5033402;28;20956;-88
2022/12/01 00:54:38;;;;;;;14.05;6.53;;;8.40;99.90;;;;;;5015051;28;20037;-89
2022/12/01 00:57:04;;;;;;;13.50;6.35;;;8.40;99.90;;;;;;5043484;28;20032;-88
2022/12/01 00:59:30;;;;;;;13.33;6.30;;;8.40;99.90;;;;;;5038777;28;20108;-88
2022/12/01 01:01:55;;;;;;;12.68;5.72;;;8.40;99.90;;;;;;5001887;28;20659;-88
2022/12/01 01:04:21;;;;;;;13.10;6.20;;;8.40;99.90;;;;;;5028370;28;20025;-88
2022/12/01 01:06:47;;;;;;;14.55;6.70;;;8.40;99.90;;;;;;5028325;28;20611;-88
2022/12/01 01:09:14;;;;;;;13.63;6.30;;;8.50;99.90;;;;;;5009032;28;20028;-89
2022/12/01 01:11:40;;;;;;;13.70;6.30;;;8.40;99.90;;;;;;5031621;28;20037;-88
2022/12/01 01:14:06;;;;;;;11.80;6.07;;;8.40;99.90;;;;;;5023274;28;20544;-87
2022/12/01 01:16:32;;;;;;;14.98;7.07;;;8.40;99.90;;;;;;5048824;28;20439;-89
2022/12/01 01:18:58;;;;;;;12.20;5.97;;;8.40;99.90;;;;;;5018489;28;20182;-88
2022/12/01 01:21:24;;;;;;;12.27;5.90;;;8.40;99.90;;;;;;5013162;28;20024;-88
2022/12/01 01:23:51;;;;;;;14.07;6.50;;;8.30;99.90;;;;;;5016829;28;20654;-89
2022/12/01 01:26:23;;;;;;;10.15;5.13;;;8.30;99.90;;;;;;5032909;28;20083;-88
2022/12/01 01:28:49;;;;;;;13.07;5.87;;;8.30;99.90;;;;;;5022708;28;20109;-88
2022/12/01 01:31:20;;;;;;;13.98;5.93;;;8.30;99.90;;;;;;5006761;28;20020;-88
2022/12/01 01:33:46;;;;;;;12.98;5.93;;;8.30;99.90;;;;;;5004724;28;20463;-88
2022/12/01 01:36:14;;;;;;;13.13;6.27;;;8.30;99.90;;;;;;5060864;28;20576;-88
2022/12/01 01:38:39;;;;;;;11.83;6.03;;;8.30;99.90;;;;;;4995527;28;20328;-89
2022/12/01 01:41:06;;;;;;;12.95;6.63;;;8.30;99.90;;;;;;5009771;28;20025;-88
2022/12/01 01:43:43;;;;;;;14.30;7.10;;;8.30;99.90;;;;;;5011976;28;20033;-88
2022/12/01 01:46:15;;;;;;;13.50;6.53;;;8.30;99.90;;;;;;5010868;28;20040;-89
2022/12/01 01:48:46;;;;;;;15.30;6.93;;;8.30;99.90;;;;;;4998859;28;20041;-88
2022/12/01 01:51:13;;;;;;;16.00;7.55;;;8.30;99.90;;;;;;5004905;28;20025;-87
2022/12/01 01:53:39;;;;;;;15.27;6.85;;;8.30;99.90;;;;;;5009307;28;20127;-88
2022/12/01 01:56:07;;;;;;;13.65;6.72;;;8.30;99.90;;;;;;5035718;28;20585;-88
2022/12/01 01:58:33;;;;;;;13.83;6.53;;;8.30;99.90;;;;;;5029068;28;20051;-88
2022/12/01 02:00:59;;;;;;;14.13;6.65;;;8.20;99.90;;;;;;4999019;28;20032;-84
2022/12/01 02:03:26;;;;;;;14.98;6.82;;;8.30;99.90;;;;;;5001305;28;20477;-84
2022/12/01 02:05:52;;;;;;;15.63;7.75;;;8.30;99.90;;;;;;5035276;28;20025;-84
2022/12/01 02:08:18;;;;;;;15.33;6.60;;;8.30;99.90;;;;;;5034144;28;20176;-84
2022/12/01 02:10:49;;;;;;;14.45;6.35;;;8.20;99.90;;;;;;5004048;28;20027;-84
2022/12/01 02:13:38;;;;;;;12.83;6.07;;;8.30;99.90;;;;;;5046022;28;20338;-84
2022/12/01 02:16:16;;;;;;;16.27;7.15;;;8.20;99.90;;;;;;5025812;28;20040;-83
2022/12/01 02:19:05;;;;;;;14.15;6.50;;;8.20;99.90;;;;;;5039213;28;20029;-84
2022/12/01 02:21:54;;;;;;;14.30;7.35;;;8.20;99.90;;;;;;5014967;28;20382;-83
2022/12/01 02:24:46;;;;;;;16.00;6.85;;;8.20;99.90;;;;;;5026366;28;20555;-84
2022/12/01 02:27:31;;;;;;;13.00;6.07;;;8.20;99.90;;;;;;5000675;28;20368;-84
2022/12/01 02:30:13;;;;;;;12.95;5.97;;;8.10;99.90;;;;;;5022300;28;20743;-84
2022/12/01 02:32:46;;;;;;;12.40;5.97;;;8.10;99.90;;;;;;5022142;28;20025;-84
2022/12/01 02:35:14;;;;;;;15.35;6.32;;;8.10;99.90;;;;;;5014817;28;20250;-84
2022/12/01 02:37:48;;;;;;;14.20;6.32;;;8.10;99.90;;;;;;5027139;28;20028;-84
2022/12/01 02:40:35;;;;;;;14.43;6.30;;;8.10;99.90;;;;;;5041837;28;21377;-84
2022/12/01 02:43:16;;;;;;;13.10;6.18;;;8.10;99.90;;;;;;5002348;28;20057;-84
2022/12/01 02:46:09;;;;;;;12.95;6.03;;;8.10;99.90;;;;;;5028134;28;20029;-84
2022/12/01 02:48:40;;;;;;;12.43;5.88;;;8.10;99.90;;;;;;5030259;28;20041;-84
2022/12/01 02:51:13;;;;;;;12.90;5.40;;;8.10;99.90;;;;;;5016825;28;20071;-84
2022/12/01 02:53:39;;;;;;;13.67;6.17;;;8.10;99.90;;;;;;5027542;28;20022;-85
2022/12/01 02:56:09;;;;;;;14.23;5.97;;;8.10;99.90;;;;;;4989473;28;20041;-84
2022/12/01 02:58:35;;;;;;;12.77;6.03;;;8.10;99.90;;;;;;5011130;28;20429;-84
2022/12/01 03:01:29;;;;;;;13.17;6.03;;;8.10;99.90;;;;;;5026861;28;20066;-84
2022/12/01 03:04:00;;;;;;;14.75;6.20;;;8.10;99.90;;;;;;5026254;28;20428;-84
2022/12/01 03:06:28;;;;;;;16.73;7.18;;;8.10;99.90;;;;;;5014361;28;20043;-84
2022/12/01 03:09:24;;;;;;;15.40;7.28;;;8.10;99.90;;;;;;5029927;28;20029;-84
2022/12/01 03:12:03;;;;;;;17.65;7.32;;;8.10;99.90;;;;;;4990095;28;20145;-84
2022/12/01 03:14:50;;;;;;;15.77;6.60;;;8.00;99.90;;;;;;5023839;28;20728;-84
2022/12/01 03:17:21;;;;;;;15.88;6.63;;;8.10;99.90;;;;;;5041532;28;20052;-84
2022/12/01 03:19:54;;;;;;;13.57;6.30;;;8.10;99.90;;;;;;5034863;28;20036;-83
2022/12/01 03:22:25;;;;;;;16.42;6.53;;;8.10;99.90;;;;;;5007692;28;20064;-83
2022/12/01 03:24:54;;;;;;;14.90;6.82;;;8.10;99.90;;;;;;5052726;28;20808;-84
2022/12/01 03:27:25;;;;;;;15.17;6.90;;;8.10;99.90;;;;;;4986939;28;20489;-84
2022/12/01 03:29:55;;;;;;;14.88;6.45;;;8.10;99.90;;;;;;5027093;28;20096;-83
2022/12/01 03:32:37;;;;;;;15.45;6.82;;;8.20;99.90;;;;;;5029082;28;20048;-83
2022/12/01 03:35:13;;;;;;;15.25;6.15;;;8.10;99.90;;;;;;5029448;28;20075;-84
2022/12/01 03:38:09;;;;;;;15.70;6.57;;;8.10;99.90;;;;;;5022918;28;20211;-83
2022/12/01 03:40:36;;;;;;;15.57;6.47;;;8.20;99.90;;;;;;5012483;28;20663;-84
2022/12/01 03:43:10;;;;;;;13.60;6.15;;;8.20;99.90;;;;;;4995451;28;20025;-83
2022/12/01 03:45:55;;;;;;;15.98;6.53;;;8.20;99.90;;;;;;5053404;28;20477;-83
2022/12/01 03:48:23;;;;;;;16.98;6.80;;;8.20;99.90;;;;;;5007017;28;20033;-84
2022/12/01 03:51:24;;;;;;;15.73;6.68;;;8.20;99.90;;;;;;5018318;28;20532;-83
2022/12/01 03:53:54;;;;;;;15.57;6.03;;;8.20;99.90;;;;;;5009677;28;20055;-84
2022/12/01 03:56:25;;;;;;;15.00;6.45;;;8.20;99.90;;;;;;5027629;28;20038;-84
2022/12/01 03:58:53;;;;;;;17.35;6.93;;;8.20;99.90;;;;;;5027026;28;20029;-83
2022/12/01 04:01:21;;;;;;;14.60;6.65;;;8.20;99.90;;;;;;5024776;28;20017;-84
2022/12/01 04:03:47;;;;;;;14.90;6.60;;;8.20;99.90;;;;;;5008613;28;20025;-83
2022/12/01 04:06:13;;;;;;;13.83;6.03;;;8.20;99.90;;;;;;5029592;28;20032;-83
2022/12/01 04:08:39;;;;;;;15.07;6.57;;;8.20;99.90;;;;;;5045273;28;20032;-83
2022/12/01 04:12:28;;;;;;;14.95;6.45;;;8.20;99.90;;;;;;5013984;28;20029;-83
2022/12/01 04:13:50;;;;;;;13.07;5.97;;;8.20;99.90;;;;;;5006126;28;20940;-83
2022/12/01 04:16:16;;;;;;;14.13;5.73;;;8.20;99.90;;;;;;5035197;28;20030;-83
2022/12/01 04:18:41;;;;;;;12.43;5.40;;;8.30;99.90;;;;;;5052312;28;20142;-83
2022/12/01 04:21:07;;;;;;;13.65;5.90;;;8.30;99.90;;;;;;5018314;28;20025;-83
2022/12/01 04:26:17;;;;;;;15.68;5.43;;;8.30;99.90;;;;;;5024950;28;20033;-83
2022/12/01 04:28:42;;;;;;;13.43;5.47;;;8.30;99.90;;;;;;5009882;28;20955;-84
2022/12/01 04:31:08;;;;;;;12.05;5.05;;;8.30;99.90;;;;;;5046912;28;20485;-83
2022/12/01 04:33:33;;;;;;;13.70;6.00;;;8.30;99.90;;;;;;5019178;28;20598;-83
2022/12/01 04:35:59;;;;;;;11.70;5.57;;;8.30;99.90;;;;;;5029349;28;20026;-83
2022/12/01 04:38:25;;;;;;;14.03;5.37;;;8.30;99.90;;;;;;5022992;28;20068;-83
2022/12/01 04:40:51;;;;;;;13.27;5.35;;;8.40;99.90;;;;;;5034729;28;20033;-83
2022/12/01 04:43:17;;;;;;;12.60;5.30;;;8.40;99.90;;;;;;5024826;28;20021;-83
2022/12/01 04:45:42;;;;;;;11.63;4.97;;;8.40;99.90;;;;;;5013929;28;20029;-83
2022/12/01 04:48:08;;;;;;;12.20;5.20;;;8.40;99.90;;;;;;5045538;28;20030;-83
2022/12/01 04:50:34;;;;;;;11.65;5.22;;;8.40;99.90;;;;;;5045418;28;20029;-83
2022/12/01 04:52:59;;;;;;;12.23;5.40;;;8.40;99.90;;;;;;5035388;28;20413;-83
2022/12/01 04:55:25;;;;;;;12.27;4.77;;;8.40;99.90;;;;;;5019947;28;20045;-83
2022/12/01 04:57:51;;;;;;;12.10;5.70;;;8.40;99.90;;;;;;5015679;28;20337;-83
2022/12/01 05:00:17;;;;;;;12.55;5.60;;;8.40;99.90;;;;;;5006803;28;20030;-83
2022/12/01 05:02:43;;;;;;;12.97;5.03;;;8.40;99.90;;;;;;5029546;28;20393;-83
2022/12/01 05:05:12;;;;;;;12.80;5.50;;;8.40;99.90;;;;;;5013219;28;20281;-83
2022/12/01 05:07:39;;;;;;;12.98;5.82;;;8.40;99.90;;;;;;5039348;28;20028;-83
2022/12/01 05:10:05;;;;;;;12.27;5.15;;;8.50;99.90;;;;;;5019711;28;20025;-83
2022/12/01 05:12:31;;;;;;;11.10;4.67;;;8.50;99.90;;;;;;5024434;28;20029;-83
2022/12/01 05:14:57;;;;;;;11.98;4.95;;;8.40;99.90;;;;;;5000375;28;20042;-84
2022/12/01 05:17:22;;;;;;;11.90;5.17;;;8.40;99.90;;;;;;5021549;28;20024;-84
2022/12/01 05:22:32;;;;;;;10.53;4.63;;;8.50;99.90;;;;;;5026880;28;20025;-83
2022/12/01 05:24:58;;;;;;;12.82;5.47;;;8.50;99.90;;;;;;5018169;28;20013;-83
2022/12/01 05:27:24;;;;;;;11.55;5.13;;;8.50;99.90;;;;;;5027018;28;20400;-84
2022/12/01 05:29:49;;;;;;;13.30;5.97;;;8.40;99.90;;;;;;5000691;28;20025;-83
2022/12/01 05:32:15;;;;;;;11.93;5.40;;;8.50;99.90;;;;;;5008205;28;20289;-83
2022/12/01 05:34:40;;;;;;;12.50;5.07;;;8.40;99.90;;;;;;5034065;28;20021;-83
2022/12/01 05:37:07;;;;;;;12.17;5.13;;;8.50;99.90;;;;;;5045280;28;20344;-83
2022/12/01 05:39:32;;;;;;;12.27;5.28;;;8.50;99.90;;;;;;5030404;28;20116;-82
2022/12/01 05:41:58;;;;;;;11.53;5.53;;;8.50;99.90;;;;;;5014579;28;20423;-84
2022/12/01 05:44:24;;;;;;;11.60;5.18;;;8.50;99.90;;;;;;5040844;28;20034;-83
2022/12/01 05:46:49;;;;;;;11.53;5.07;;;8.50;99.90;;;;;;5002925;28;20528;-83
2022/12/01 05:49:15;;;;;;;12.10;5.45;;;8.50;99.90;;;;;;5050149;28;20577;-83
2022/12/01 05:51:42;;;;;;;10.83;4.83;;;8.50;99.90;;;;;;5026689;28;20029;-83
2022/12/01 05:54:08;;;;;;;11.02;5.28;;;8.50;99.90;;;;;;5005648;28;20021;-84
2022/12/01 05:56:34;;;;;;;13.23;5.00;;;8.50;99.90;;;;;;5022652;28;20032;-84
2022/12/01 05:58:59;;;;;;;13.50;5.63;;;8.50;99.90;;;;;;5015226;28;20044;-83
2022/12/01 06:01:25;;;;;;;12.75;5.38;;;8.50;99.90;;;;;;4985295;28;20056;-83
2022/12/01 06:03:52;;;;;;;10.70;4.93;;;8.50;99.90;;;;;;5026083;28;20017;-83
2022/12/01 06:06:18;;;;;;;14.52;5.47;;;8.50;99.90;;;;;;5024449;28;20021;-83
2022/12/01 06:08:44;;;;;;;12.60;5.47;;;8.50;99.90;;;;;;5000708;28;20040;-83
2022/12/01 06:11:09;;;;;;;12.60;5.20;;;8.50;99.90;;;;;;5015065;28;20345;-83
2022/12/01 06:13:35;;;;;;;12.65;5.13;;;8.50;99.90;;;;;;4999393;28;20340;-83
2022/12/01 06:16:03;;;;;;;11.90;5.00;;;8.50;99.90;;;;;;5018102;28;20596;-83
2022/12/01 06:18:31;;;;;;;12.52;5.50;;;8.50;99.90;;;;;;5013294;28;20150;-84
2022/12/01 06:20:57;;;;;;;12.05;5.15;;;8.50;99.90;;;;;;5022947;28;20032;-83
2022/12/01 06:23:23;;;;;;;11.93;5.07;;;8.50;99.90;;;;;;5008525;28;20505;-83
2022/12/01 06:25:48;;;;;;;13.73;5.88;;;8.40;99.90;;;;;;5022557;28;20242;-83
2022/12/01 06:28:15;;;;;;;11.77;4.93;;;8.40;99.90;;;;;;5021379;28;20224;-83
2022/12/01 06:30:40;;;;;;;13.02;5.72;;;8.40;99.90;;;;;;5027200;28;20088;-83
2022/12/01 06:33:06;;;;;;;12.13;5.35;;;8.40;99.90;;;;;;5006812;28;20245;-83
2022/12/01 06:35:32;;;;;;;14.17;5.30;;;8.40;99.90;;;;;;5047976;28;20416;-83
2022/12/01 06:37:57;;;;;;;11.73;4.97;;;8.40;99.90;;;;;;5013344;28;20350;-84
2022/12/01 06:40:23;;;;;;;12.90;5.23;;;8.40;99.90;;;;;;5010801;28;20052;-84
2022/12/01 06:42:49;;;;;;;11.30;4.88;;;8.40;99.90;;;;;;5001243;28;20122;-83
2022/12/01 06:45:14;;;;;;;12.30;5.30;;;8.40;99.90;;;;;;5022431;28;20770;-83
2022/12/01 06:47:40;;;;;;;12.13;5.30;;;8.50;99.90;;;;;;5013575;28;20122;-86
2022/12/01 06:50:08;;;;;;;13.10;5.47;;;8.50;99.90;;;;;;5055990;28;20086;-83
2022/12/01 06:52:35;;;;;;;11.43;5.22;;;8.50;99.90;;;;;;5017255;28;20421;-84
2022/12/01 06:55:02;;;;;;;11.85;4.95;;;8.50;99.90;;;;;;5015820;28;20041;-83
2022/12/01 06:57:29;;;;;;;12.57;5.50;;;8.50;99.90;;;;;;5024677;28;20780;-84
2022/12/01 06:59:54;;;;;;;13.25;6.10;;;8.50;99.90;;;;;;5015759;28;20086;-83
2022/12/01 07:02:20;;;;;;;11.35;4.80;;;8.50;99.90;;;;;;5003111;28;20013;-83
2022/12/01 07:04:46;;;;;;;10.70;4.93;;;8.50;99.90;;;;;;5009120;28;20206;-83
2022/12/01 07:07:12;;;;;;;11.27;5.65;;;8.50;99.90;;;;;;5028021;28;20025;-83
2022/12/01 07:09:38;;;;;;;10.50;4.70;;;8.50;99.90;;;;;;5005093;28;20073;-83
2022/12/01 07:12:04;;;;;;;11.05;4.72;;;8.50;99.90;;;;;;5048493;28;20510;-84
2022/12/01 07:14:30;;;;;;;12.20;5.43;;;8.40;99.90;;;;;;4996609;28;20377;-83
2022/12/01 07:16:56;;;;;;;10.80;4.83;;;8.50;99.90;;;;;;5011384;28;20032;-83
2022/12/01 07:19:22;;;;;;;10.82;5.03;;;8.50;99.90;;;;;;5014613;28;20037;-83
2022/12/01 07:21:48;;;;;;;12.23;5.40;;;8.40;99.90;;;;;;5037123;28;20017;-83
2022/12/01 07:24:14;;;;;;;12.40;5.23;;;8.50;99.90;;;;;;5027961;28;20027;-83
2022/12/01 07:26:41;;;;;;;12.10;5.15;;;8.40;99.90;;;;;;5001746;28;20579;-83
2022/12/01 07:29:08;;;;;;;10.50;4.75;;;8.40;99.90;;;;;;4980175;28;20316;-83
2022/12/01 07:31:34;;;;;;;11.70;5.00;;;8.40;99.90;;;;;;5024434;28;20505;-84
2022/12/01 07:33:59;;;;;;;10.88;5.10;;;8.40;99.90;;;;;;4997474;28;20037;-83
2022/12/01 07:36:25;;;;;;;12.60;4.90;;;8.40;99.90;;;;;;5031345;28;20040;-83
2022/12/01 07:38:50;;;;;;;10.32;4.68;;;8.40;99.90;;;;;;5008420;28;20378;-83
2022/12/01 07:41:18;;;;;;;12.00;5.57;;;8.40;99.90;;;;;;4997374;28;20095;-83
2022/12/01 07:43:44;;;;;;;11.65;5.38;;;8.50;99.90;;;;;;5040562;28;20206;-83
2022/12/01 07:46:23;;;;;;;12.18;5.53;;;8.40;99.90;;;;;;5012688;28;20184;-83
2022/12/01 07:48:49;;;;;;;11.65;5.63;;;8.40;99.90;;;;;;5032066;28;20013;-83
2022/12/01 07:51:15;;;;;;;14.27;6.17;;;8.40;99.90;;;;;;5006493;28;20026;-84
2022/12/01 07:53:43;;;;;;;12.02;4.80;;;8.40;99.90;;;;;;5019921;28;20375;-84
2022/12/01 07:56:08;;;;;;;12.02;5.18;;;8.40;99.90;;;;;;4996542;28;20291;-83
2022/12/01 07:58:34;;;;;;;12.60;5.77;;;8.40;99.90;;;;;;5028823;28;20021;-83
2022/12/01 08:01:06;;;;;;;12.75;5.32;;;8.40;99.90;;;;;;5030885;28;20036;-83
2022/12/01 08:03:31;;;;;;;10.82;5.57;;;8.50;99.90;;;;;;5027197;28;20035;-83
2022/12/01 08:05:58;;;;;;;11.80;5.17;;;8.50;99.90;;;;;;5024094;28;20021;-84
2022/12/01 08:08:25;;;;;;;13.48;6.05;;;8.50;99.90;;;;;;5027185;28;20371;-83
2022/12/01 08:10:51;;;;;;;13.45;5.95;;;8.50;99.90;;;;;;5029829;28;20165;-83
2022/12/01 08:13:17;;;;;;;12.37;5.90;;;8.50;99.90;;;;;;5044562;28;20036;-83
2022/12/01 08:15:43;;;;;;;12.10;5.88;;;8.50;99.90;;;;;;5044947;28;20267;-83
2022/12/01 08:18:09;;;;;;;13.00;5.85;;;8.50;99.90;;;;;;5024819;28;20122;-83
2022/12/01 08:20:34;;;;;;;13.33;6.27;;;8.50;99.90;;;;;;5030837;28;20028;-83
2022/12/01 08:23:00;;;;;;;13.80;6.57;;;8.50;99.90;;;;;;4997979;28;20082;-83
2022/12/01 08:25:27;;;;;;;13.50;5.53;;;8.50;99.90;;;;;;5060432;28;20045;-83
2022/12/01 08:27:52;;;;;;;12.35;5.47;;;8.50;99.90;;;;;;5029822;28;20347;-83
2022/12/01 08:30:18;;;;;;;15.25;6.32;;;8.60;99.90;;;;;;5006080;28;20522;-83
2022/12/01 08:32:44;;;;;;;12.87;6.07;;;8.60;99.90;;;;;;5027215;28;20519;-83
2022/12/01 08:35:10;;;;;;;12.27;5.55;;;8.60;99.90;;;;;;5017709;28;20060;-83
2022/12/01 08:37:35;;;;;;;14.43;6.20;;;8.60;99.90;;;;;;5004278;28;20148;-83
2022/12/01 08:40:01;;;;;;;15.43;6.53;;;8.60;99.90;;;;;;5036532;28;20036;-83
2022/12/01 08:42:26;;;;;;;15.13;6.43;;;8.70;99.90;;;;;;5056873;28;20026;-83
2022/12/01 08:44:52;;;;;;;13.60;6.20;;;8.70;99.90;;;;;;5035488;28;20260;-84
2022/12/01 08:47:18;;;;;;;13.30;6.80;;;8.70;99.90;;;;;;5026953;28;20033;-83
2022/12/01 08:49:43;;;;;;;15.43;6.63;;;8.70;99.90;;;;;;5009546;28;20404;-84
2022/12/01 08:52:09;;;;;;;16.02;6.72;;;8.70;99.90;;;;;;5047341;28;20524;-84
2022/12/01 08:54:35;;;;;;;14.53;6.57;;;8.70;99.90;;;;;;5009445;28;20044;-84
2022/12/01 08:57:00;;;;;;;14.13;6.55;;;8.70;99.90;;;;;;5035215;28;20021;-83
2022/12/01 08:59:26;;;;;;;16.20;6.77;;;8.70;99.90;;;;;;5025861;28;20057;-84
2022/12/01 09:01:52;;;;;;;15.15;6.95;;;8.70;99.90;;;;;;5031712;28;20021;-83
2022/12/01 09:04:19;;;;;;;15.40;7.17;;;8.80;99.90;;;;;;5022972;28;20014;-83
2022/12/01 09:06:47;;;;;;;13.70;6.80;;;8.80;99.90;;;;;;5025673;28;20190;-84
2022/12/01 09:09:18;;;;;;;15.20;6.68;;;8.80;99.90;;;;;;5042238;28;20029;-83
2022/12/01 09:11:46;;;;;;;16.52;7.28;;;8.80;99.90;;;;;;5012910;28;20033;-83
2022/12/01 09:14:13;;;;;;;15.90;7.03;;;8.90;99.90;;;;;;5031069;28;20491;-84
2022/12/01 09:16:40;;;;;;;15.65;6.40;;;8.80;99.90;;;;;;5057295;28;20104;-84
2022/12/01 09:19:05;;;;;;;16.70;7.10;;;8.90;99.90;;;;;;5022545;28;20029;-84
2022/12/01 09:21:32;;;;;;;15.77;5.95;;;8.90;99.90;;;;;;5037814;28;20079;-83
2022/12/01 09:24:00;;;;;;;15.53;7.30;;;8.90;99.90;;;;;;5040576;28;20105;-84
2022/12/01 09:26:26;;;;;;;14.82;6.53;;;8.90;99.90;;;;;;5033585;28;20028;-83
2022/12/01 09:28:54;;;;;;;13.00;6.05;;;9.00;99.90;;;;;;5031955;28;20067;-84
2022/12/01 09:31:22;;;;;;;19.17;7.20;;;9.00;99.90;;;;;;5016124;28;20055;-84
2022/12/01 09:33:53;;;;;;;15.73;7.07;;;9.00;99.90;;;;;;5029197;28;20013;-84
2022/12/01 09:36:19;;;;;;;15.77;6.60;;;9.00;99.90;;;;;;5025202;28;20120;-84
2022/12/01 09:38:44;;;;;;;16.27;7.70;;;9.10;99.90;;;;;;5033313;28;20022;-84
2022/12/01 09:41:28;;;;;;;14.97;6.37;;;9.10;99.90;;;;;;5058096;28;20391;-84
2022/12/01 09:44:29;;;;;;;15.60;7.28;;;9.10;99.90;;;;;;5056466;28;20521;-84
2022/12/01 09:47:01;;;;;;;15.68;6.78;;;9.10;99.90;;;;;;5030552;28;20021;-84
2022/12/01 09:49:50;;;;;;;16.05;6.57;;;9.20;99.90;;;;;;5022731;28;20044;-84
2022/12/01 09:52:18;;;;;;;15.40;6.22;;;9.20;99.90;;;;;;5058202;28;20742;-83
2022/12/01 09:54:45;;;;;;;14.17;6.20;;;9.20;99.90;;;;;;5026613;28;20611;-83
2022/12/01 09:57:27;;;;;;;15.73;6.55;;;9.20;99.90;;;;;;5027001;28;20137;-84
2022/12/01 09:59:54;;;;;;;13.10;6.25;;;9.20;99.90;;;;;;5024156;28;20072;-83
2022/12/01 10:02:26;;;;;;;14.85;6.57;;;9.20;99.90;;;;;;5026544;28;20377;-84
2022/12/01 10:04:53;;;;;;;15.15;6.47;;;9.30;99.90;;;;;;5021202;28;20017;-84
2022/12/01 10:07:57;;;;;;;16.23;6.70;;;9.30;99.90;;;;;;5023420;28;20033;-84
2022/12/01 10:10:26;;;;;;;14.57;6.05;;;9.30;99.90;;;;;;4925104;28;20026;-83
2022/12/01 10:12:52;;;;;;;14.95;6.75;;;9.30;99.90;;;;;;4928651;28;20034;-83
2022/12/01 10:15:29;;;;;;;16.00;6.50;;;9.30;99.90;;;;;;4966544;28;20056;-83
2022/12/01 10:18:48;;;;;;;16.02;6.93;;;9.30;99.90;;;;;;5004908;28;20480;-84
2022/12/01 10:21:41;;;;;;;15.80;6.50;;;9.30;99.90;;;;;;4983294;28;20140;-84
2022/12/01 10:24:22;;;;;;;13.55;6.13;;;9.40;99.90;;;;;;5040366;28;20709;-84
2022/12/01 10:26:57;;;;;;;15.25;6.80;;;9.40;99.90;;;;;;5012494;28;20125;-83
2022/12/01 10:29:55;;;;;;;13.50;6.43;;;9.40;99.90;;;;;;5012192;28;20536;-84
2022/12/01 10:32:39;;;;;;;15.25;6.85;;;9.40;99.90;;;;;;5030614;28;20218;-84
2022/12/01 10:35:05;;;;;;;12.53;5.70;;;9.50;99.90;;;;;;5036858;28;20551;-84
2022/12/01 10:37:31;;;;;;;15.60;6.63;;;9.50;99.90;;;;;;5024621;28;20030;-83
2022/12/01 10:39:57;;;;;;;13.52;5.80;;;9.50;99.90;;;;;;5016302;28;20029;-83
2022/12/01 10:42:46;;;;;;;13.45;6.00;;;9.50;99.90;;;;;;5025323;28;20029;-84
2022/12/01 10:45:27;;;;;;;13.53;6.10;;;9.60;99.90;;;;;;5002948;28;20214;-83
2022/12/01 10:48:14;;;;;;;13.38;6.25;;;9.60;99.90;;;;;;5045877;28;20021;-84
2022/12/01 10:50:50;;;;;;;14.63;5.40;;;9.70;99.90;;;;;;5053398;28;20025;-84
2022/12/01 10:53:22;;;;;;;12.43;6.18;;;9.70;99.90;;;;;;5022007;28;20029;-83
2022/12/01 10:56:09;;;;;;;15.05;5.97;;;9.70;99.90;;;;;;5013546;28;20056;-83
2022/12/01 10:58:47;;;;;;;12.87;6.03;;;9.70;99.90;;;;;;5021456;28;20048;-83
2022/12/01 11:01:23;;;;;;;12.88;5.90;;;9.80;99.90;;;;;;4992792;28;20249;-83
2022/12/01 11:04:10;;;;;;;13.35;5.53;;;9.80;99.90;;;;;;5010461;28;20021;-83
2022/12/01 11:06:36;;;;;;;12.10;5.32;;;9.80;99.90;;;;;;5014087;28;20099;-83
2022/12/01 11:09:16;;;;;;;13.35;5.93;;;9.90;99.90;;;;;;5033359;28;20029;-83
2022/12/01 11:11:42;;;;;;;13.13;5.57;;;9.90;99.90;;;;;;5046394;28;20043;-83
2022/12/01 11:14:20;;;;;;;14.20;6.55;;;9.90;99.90;;;;;;5029073;28;20214;-84
2022/12/01 11:16:49;;;;;;;13.02;6.10;;;9.90;99.90;;;;;;5007562;28;20494;-83
2022/12/01 11:19:31;;;;;;;12.70;5.73;;;9.90;99.90;;;;;;5039640;28;20198;-84
2022/12/01 11:22:11;;;;;;;12.88;6.30;;;10.00;99.90;;;;;;5022952;28;20036;-84
2022/12/01 11:24:55;;;;;;;14.75;5.70;;;10.00;99.90;;;;;;5028866;28;20021;-84
2022/12/01 11:27:30;;;;;;;13.40;6.20;;;10.00;99.90;;;;;;5048040;28;20013;-84
2022/12/01 11:30:14;;;;;;;14.73;6.05;;;10.00;99.90;;;;;;5010794;28;20488;-83
2022/12/01 11:32:49;;;;;;;12.63;6.10;;;10.00;99.90;;;;;;5041152;28;20082;-84
2022/12/01 11:35:19;;;;;;;12.77;5.55;;;10.00;99.90;;;;;;5024388;28;20199;-83
2022/12/01 11:37:57;;;;;;;14.82;6.43;;;10.00;99.90;;;;;;5030519;28;20060;-84
2022/12/01 11:40:26;;;;;;;14.68;6.60;;;10.00;99.90;;;;;;5029992;28;20022;-84
2022/12/01 11:42:55;;;;;;;13.02;6.30;;;10.00;99.90;;;;;;5022330;28;20041;-84
2022/12/01 11:45:21;;;;;;;13.87;5.87;;;10.00;99.90;;;;;;5029914;28;20052;-84
2022/12/01 11:48:17;;;;;;;13.77;6.10;;;10.00;99.90;;;;;;4988506;28;20120;-84
2022/12/01 11:50:58;;;;;;;11.60;5.45;;;10.00;99.90;;;;;;5014345;28;20664;-84
2022/12/01 11:53:30;;;;;;;14.97;6.73;;;10.10;99.90;;;;;;5019595;28;20029;-84
2022/12/01 11:56:22;;;;;;;14.68;6.65;;;10.10;99.90;;;;;;5025342;28;20037;-83
2022/12/01 11:58:50;;;;;;;12.07;5.82;;;10.10;99.90;;;;;;5025773;28;20111;-83
2022/12/01 12:01:31;;;;;;;13.70;6.30;;;10.20;99.90;;;;;;5028457;28;20114;-84
2022/12/01 12:04:24;;;;;;;15.43;8.00;;;10.20;99.90;;;;;;5011486;28;20029;-84
2022/12/01 12:07:08;;;;;;;12.97;6.13;;;10.30;99.90;;;;;;5033608;28;20055;-83
2022/12/01 12:09:46;;;;;;;13.80;6.05;;;10.30;99.90;;;;;;5002633;28;20482;-84
2022/12/01 12:12:34;;;;;;;15.50;7.18;;;10.30;99.90;;;;;;5027837;28;20045;-84
2022/12/01 12:15:18;;;;;;;14.43;6.85;;;10.40;99.90;;;;;;4997878;28;20051;-84
2022/12/01 12:17:59;;;;;;;13.90;6.38;;;10.40;99.90;;;;;;4984868;28;20025;-84
2022/12/01 12:20:46;;;;;;;13.83;6.03;;;10.40;99.90;;;;;;5012756;28;20107;-83
2022/12/01 12:23:42;;;;;;;13.70;6.25;;;10.50;99.90;;;;;;5007902;28;20021;-82
2022/12/01 12:26:07;;;;;;;14.38;6.78;;;10.50;99.90;;;;;;5050307;28;20043;-83
2022/12/01 12:28:33;;;;;;;12.40;6.13;;;10.50;99.90;;;;;;5043211;28;20030;-83
2022/12/01 12:31:23;;;;;;;12.52;6.28;;;10.50;99.90;;;;;;5031937;28;20045;-83
2022/12/01 12:34:14;;;;;;;14.75;7.20;;;10.50;99.90;;;;;;5007125;28;20034;-83
2022/12/01 12:36:52;;;;;;;15.10;6.83;;;10.50;99.90;;;;;;4989342;28;20083;-84
2022/12/01 12:39:31;;;;;;;16.08;7.57;;;10.50;99.90;;;;;;5053218;28;20496;-85
2022/12/01 12:41:57;;;;;;;13.70;7.00;;;10.50;99.90;;;;;;5034181;28;20024;-84
2022/12/01 12:44:50;;;;;;;14.93;7.38;;;10.50;99.90;;;;;;5016915;28;20028;-84
2022/12/01 12:47:24;;;;;;;16.00;7.50;;;10.40;99.90;;;;;;5024006;28;20485;-84
2022/12/01 12:50:05;;;;;;;15.33;7.37;;;10.40;99.90;;;;;;5023129;28;20373;-83
2022/12/01 12:52:41;;;;;;;14.27;6.40;;;10.30;99.90;;;;;;5011599;28;20385;-84
2022/12/01 12:55:20;;;;;;;15.32;7.28;;;10.40;99.90;;;;;;5049483;28;20076;-83
2022/12/01 12:57:48;;;;;;;12.95;6.47;;;10.40;99.90;;;;;;5015384;28;20249;-83
2022/12/01 13:00:18;;;;;;;14.90;7.15;;;10.40;99.90;;;;;;4997201;28;20033;-83
2022/12/01 13:03:20;;;;;;;14.33;6.87;;;10.40;99.90;;;;;;5028613;28;20088;-83
2022/12/01 13:05:49;;;;;;;13.85;6.57;;;10.50;99.90;;;;;;4981166;28;20975;-83
2022/12/01 13:08:46;;;;;;;14.68;6.72;;;10.50;99.90;;;;;;5060638;28;20025;-84
2022/12/01 13:11:18;;;;;;;14.48;7.07;;;10.50;99.90;;;;;;5008498;28;20017;-84